createdAt,value
2022-11-05T00:00:13.113Z,89.90
2022-11-05T00:04:33.338Z,90.87
2022-11-05T00:08:53.841Z,90.26
2022-11-05T00:13:16.742Z,90.60
2022-11-05T00:17:18.245Z,90.74
2022-11-05T00:21:38.407Z,90.70
2022-11-05T00:25:40.145Z,90.69
2022-11-05T00:29:41.600Z,90.09
2022-11-05T00:33:43.508Z,90.18
2022-11-05T00:37:49.784Z,89.72
2022-11-05T00:42:10.455Z,89.40
2022-11-05T00:46:12.293Z,88.78
2022-11-05T00:50:14.032Z,88.55
2022-11-05T00:54:15.536Z,88.70
2022-11-05T00:58:22.016Z,88.71
2022-11-05T01:02:24.680Z,88.64
2022-11-05T01:06:26.324Z,89.59
2022-11-05T01:10:28.551Z,89.67
2022-11-05T01:14:30.404Z,88.98
2022-11-05T01:18:31.974Z,88.91
2022-11-05T01:22:33.552Z,88.94
2022-11-05T01:26:35.115Z,88.66
2022-11-05T01:30:37.184Z,87.98
2022-11-05T01:34:38.692Z,87.90
2022-11-05T01:38:40.310Z,87.69
2022-11-05T01:42:41.998Z,87.85
2022-11-05T01:46:46.125Z,87.52
2022-11-05T01:50:59.975Z,87.98
2022-11-05T01:55:03.444Z,88.14
2022-11-05T01:59:11.796Z,88.21
2022-11-05T02:03:16.504Z,88.23
2022-11-05T02:07:18.827Z,88.06
2022-11-05T02:11:20.844Z,87.30
2022-11-05T02:15:58.450Z,87.21
2022-11-05T02:19:59.947Z,87.61
2022-11-05T02:24:23.743Z,88.98
2022-11-05T02:28:34.303Z,89.23
2022-11-05T02:32:47.073Z,89.20
2022-11-05T02:37:13.173Z,89.06
2022-11-05T02:41:21.943Z,88.25
2022-11-05T02:45:23.388Z,88.47
2022-11-05T02:49:35.734Z,88.27
2022-11-05T02:53:42.678Z,88.32
2022-11-05T02:57:46.528Z,88.06
2022-11-05T03:01:49.001Z,87.75
2022-11-05T03:05:53.654Z,87.44
2022-11-05T03:10:27.393Z,87.72
2022-11-05T03:14:51.172Z,88.18
2022-11-05T03:19:19.268Z,88.83
2022-11-05T03:23:32.129Z,88.57
2022-11-05T03:27:38.009Z,89.03
2022-11-05T03:31:41.532Z,89.13
2022-11-05T03:35:50.149Z,89.24
2022-11-05T03:39:56.338Z,89.60
2022-11-05T03:43:59.597Z,89.20
2022-11-05T03:48:04.769Z,89.41
2022-11-05T03:52:16.538Z,89.46
2022-11-05T03:56:26.212Z,89.61
2022-11-05T04:00:27.794Z,88.89
2022-11-05T04:04:29.491Z,88.46
2022-11-05T04:08:49.559Z,88.47
2022-11-05T04:13:09.910Z,87.74
2022-11-05T04:17:11.815Z,87.36
2022-11-05T04:21:31.886Z,86.73
2022-11-05T04:25:33.724Z,86.76
2022-11-05T04:29:53.988Z,86.76
2022-11-05T04:33:55.435Z,87.25
2022-11-05T04:37:57.053Z,87.26
2022-11-05T04:41:58.633Z,86.33
2022-11-05T04:46:00.307Z,86.53
2022-11-05T04:50:01.914Z,86.36
2022-11-05T04:54:04.083Z,86.71
2022-11-05T04:58:06.132Z,86.53
2022-11-05T05:02:07.994Z,86.60
2022-11-05T05:06:10.365Z,86.49
2022-11-05T05:10:12.426Z,86.44
2022-11-05T05:14:13.974Z,86.27
2022-11-05T05:18:15.631Z,86.05
2022-11-05T05:22:17.245Z,85.99
2022-11-05T05:26:18.864Z,86.30
2022-11-05T05:30:20.366Z,86.47
2022-11-05T05:34:22.057Z,86.00
2022-11-05T05:38:23.847Z,86.08
2022-11-05T05:42:25.327Z,86.18
2022-11-05T05:46:26.812Z,85.75
2022-11-05T05:50:28.330Z,86.01
2022-11-05T05:54:33.437Z,85.74
2022-11-05T05:58:39.086Z,86.04
2022-11-05T06:02:40.740Z,86.21
2022-11-05T06:06:42.635Z,86.19
2022-11-05T06:10:50.656Z,86.23
2022-11-05T06:14:52.484Z,85.87
2022-11-05T06:18:53.980Z,85.71
2022-11-05T06:22:58.623Z,85.45
2022-11-05T06:27:00.138Z,85.01
2022-11-05T06:31:02.747Z,85.05
2022-11-05T06:35:04.555Z,84.55
2022-11-05T06:39:11.252Z,84.41
2022-11-05T06:43:13.096Z,84.73
2022-11-05T06:47:15.180Z,84.71
2022-11-05T06:51:16.748Z,84.16
2022-11-05T06:55:18.274Z,84.19
2022-11-05T06:59:20.101Z,82.87
2022-11-05T07:03:21.756Z,82.43
2022-11-05T07:07:23.301Z,82.94
2022-11-05T07:11:24.834Z,82.42
2022-11-05T07:15:26.324Z,82.22
2022-11-05T07:19:27.857Z,81.80
2022-11-05T07:23:29.494Z,81.46
2022-11-05T07:27:31.352Z,81.28
2022-11-05T07:31:32.981Z,81.73
2022-11-05T07:35:34.842Z,81.78
2022-11-05T07:39:36.430Z,81.50
2022-11-05T07:43:37.960Z,81.40
2022-11-05T07:47:45.534Z,81.18
2022-11-05T07:51:47.296Z,80.55
2022-11-05T07:55:49.047Z,80.23
2022-11-05T07:59:50.614Z,80.43
2022-11-05T08:03:52.221Z,80.05
2022-11-05T08:07:55.217Z,79.89
2022-11-05T08:12:02.612Z,79.28
2022-11-05T08:16:05.732Z,79.33
2022-11-05T08:20:08.132Z,78.86
2022-11-05T08:24:09.943Z,76.81
2022-11-05T08:28:13.118Z,77.21
2022-11-05T08:32:14.784Z,76.70
2022-11-05T08:36:16.422Z,77.02
2022-11-05T08:40:18.155Z,76.77
2022-11-05T08:44:19.935Z,75.88
2022-11-05T08:48:21.601Z,74.78
2022-11-05T08:52:23.156Z,75.15
2022-11-05T08:56:24.797Z,75.68
2022-11-05T09:00:28.421Z,76.00
2022-11-05T09:04:30.395Z,75.22
2022-11-05T09:08:32.116Z,74.45
2022-11-05T09:12:33.727Z,74.14
2022-11-05T09:16:36.943Z,72.42
2022-11-05T09:20:40.032Z,71.88
2022-11-05T09:24:43.385Z,72.03
2022-11-05T09:28:45.102Z,74.32
2022-11-05T09:32:46.892Z,73.97
2022-11-05T09:36:48.969Z,71.59
2022-11-05T09:41:01.693Z,71.92
2022-11-05T09:45:25.176Z,71.89
2022-11-05T09:49:35.417Z,72.12
2022-11-05T09:53:40.868Z,70.37
2022-11-05T09:57:47.908Z,69.82
2022-11-05T10:01:52.433Z,66.75
2022-11-05T10:06:00.213Z,54.36
2022-11-05T10:10:06.348Z,44.88
2022-11-05T10:14:16.811Z,45.08
2022-11-05T10:18:31.599Z,44.17
2022-11-05T10:22:33.384Z,41.69
2022-11-05T10:26:35.150Z,43.05
2022-11-05T10:30:37.193Z,39.89
2022-11-05T10:34:39.987Z,42.32
2022-11-05T10:38:42.259Z,47.44
2022-11-05T10:43:00.547Z,49.86
2022-11-05T10:47:33.542Z,43.32
2022-11-05T10:51:35.222Z,41.27
2022-11-05T10:55:41.530Z,35.83
2022-11-05T10:59:43.132Z,35.27
2022-11-05T11:03:49.399Z,36.50
2022-11-05T11:08:01.294Z,41.90
2022-11-05T11:12:16.945Z,48.19
2022-11-05T11:16:23.947Z,51.74
2022-11-05T11:20:31.516Z,53.89
2022-11-05T11:24:41.548Z,56.06
2022-11-05T11:28:51.197Z,54.05
2022-11-05T11:32:59.143Z,46.70
2022-11-05T11:37:19.508Z,38.43
2022-11-05T11:41:27.937Z,37.50
2022-11-05T11:45:52.862Z,37.40
2022-11-05T11:49:57.423Z,31.31
2022-11-05T11:54:00.226Z,34.49
2022-11-05T11:58:07.750Z,43.96
2022-11-05T12:02:34.943Z,49.66
2022-11-05T12:06:46.244Z,49.19
2022-11-05T12:11:01.068Z,36.66
2022-11-05T12:15:17.788Z,30.83
2022-11-05T12:20:06.648Z,28.79
2022-11-05T12:24:23.474Z,27.47
2022-11-05T12:29:12.319Z,26.99
2022-11-05T12:33:13.854Z,29.55
2022-11-05T12:37:30.864Z,36.49
2022-11-05T12:42:00.172Z,40.98
2022-11-05T12:46:12.828Z,43.80
2022-11-05T12:50:29.752Z,46.16
2022-11-05T12:54:53.219Z,48.89
2022-11-05T12:59:02.516Z,49.16
2022-11-05T13:03:20.665Z,50.38
2022-11-05T13:07:58.012Z,51.70
2022-11-05T13:12:11.997Z,50.04
2022-11-05T13:16:24.177Z,50.49
2022-11-05T13:20:39.726Z,46.91
2022-11-05T13:24:57.484Z,38.03
2022-11-05T13:29:10.239Z,33.57
2022-11-05T13:33:20.962Z,26.66
2022-11-05T13:37:55.876Z,25.99
2022-11-05T13:42:28.389Z,23.96
2022-11-05T13:46:46.955Z,27.79
2022-11-05T13:50:59.791Z,31.55
2022-11-05T13:55:29.763Z,37.13
2022-11-05T13:59:31.294Z,42.17
2022-11-05T14:03:33.230Z,45.28
2022-11-05T14:07:46.193Z,46.64
2022-11-05T14:11:51.665Z,47.85
2022-11-05T14:16:05.607Z,51.14
2022-11-05T14:20:23.054Z,50.87
2022-11-05T14:24:28.000Z,51.78
2022-11-05T14:28:35.582Z,53.06
2022-11-05T14:32:48.565Z,45.29
2022-11-05T14:37:19.866Z,37.63
2022-11-05T14:41:22.391Z,40.27
2022-11-05T14:45:30.443Z,45.75
2022-11-05T14:49:50.954Z,49.57
2022-11-05T14:54:15.179Z,51.47
2022-11-05T14:58:17.370Z,53.53
2022-11-05T15:02:23.002Z,54.40
2022-11-05T15:06:35.058Z,54.42
2022-11-05T15:10:37.486Z,55.81
2022-11-05T15:14:59.059Z,55.83
2022-11-05T15:19:01.258Z,57.28
2022-11-05T15:23:06.435Z,58.02
2022-11-05T15:27:16.033Z,58.92
2022-11-05T15:31:37.379Z,60.05
2022-11-05T15:35:41.323Z,61.44
2022-11-05T15:39:45.331Z,63.69
2022-11-05T15:43:48.563Z,65.36
2022-11-05T15:47:50.191Z,64.27
2022-11-05T15:51:51.821Z,65.63
2022-11-05T15:55:58.026Z,65.78
2022-11-05T16:00:04.566Z,66.53
2022-11-05T16:04:17.551Z,67.39
2022-11-05T16:08:23.263Z,67.64
2022-11-05T16:12:33.729Z,68.05
2022-11-05T16:16:35.359Z,69.37
2022-11-05T16:20:38.709Z,70.46
2022-11-05T16:24:40.907Z,70.97
2022-11-05T16:28:50.636Z,71.51
2022-11-05T16:32:52.973Z,72.33
2022-11-05T16:36:57.118Z,73.08
2022-11-05T16:41:00.292Z,73.51
2022-11-05T16:45:02.049Z,73.49
2022-11-05T16:49:03.974Z,73.91
2022-11-05T16:53:05.566Z,74.53
2022-11-05T16:57:15.674Z,74.85
2022-11-05T17:01:20.439Z,76.09
2022-11-05T17:05:26.139Z,75.18
2022-11-05T17:09:27.695Z,75.56
2022-11-05T17:13:29.221Z,75.73
2022-11-05T17:17:30.709Z,76.15
2022-11-05T17:21:32.438Z,76.36
2022-11-05T17:25:34.164Z,76.73
2022-11-05T17:29:35.694Z,77.63
2022-11-05T17:33:37.280Z,77.24
2022-11-05T17:37:38.896Z,77.88
2022-11-05T17:41:40.485Z,78.33
2022-11-05T17:45:44.653Z,79.34
2022-11-05T17:49:46.275Z,79.26
2022-11-05T17:53:49.142Z,79.61
2022-11-05T17:57:51.955Z,80.26
2022-11-05T18:01:53.616Z,80.48
2022-11-05T18:06:01.763Z,80.67
2022-11-05T18:10:04.287Z,81.14
2022-11-05T18:14:06.292Z,80.48
2022-11-05T18:18:08.347Z,80.15
2022-11-05T18:22:10.064Z,80.80
2022-11-05T18:26:13.168Z,79.77
2022-11-05T18:30:15.734Z,80.33
2022-11-05T18:34:17.286Z,80.67
2022-11-05T18:38:19.052Z,79.82
2022-11-05T18:42:21.466Z,80.61
2022-11-05T18:46:51.082Z,82.27
2022-11-05T18:50:44.582Z,81.98
2022-11-05T18:54:46.234Z,80.88
2022-11-05T18:58:47.987Z,82.29
2022-11-05T19:02:49.728Z,82.50
2022-11-05T19:06:51.372Z,82.80
2022-11-05T19:10:53.281Z,82.06
2022-11-05T19:15:00.965Z,81.74
2022-11-05T19:19:05.656Z,81.99
2022-11-05T19:23:07.157Z,81.91
2022-11-05T19:27:08.638Z,82.20
2022-11-05T19:31:14.117Z,82.59
2022-11-05T19:35:15.728Z,82.79
2022-11-05T19:39:17.485Z,83.26
2022-11-05T19:43:19.325Z,83.02
2022-11-05T19:47:21.024Z,83.03
2022-11-05T19:51:25.320Z,83.08
2022-11-05T19:55:27.318Z,82.97
2022-11-05T19:59:28.959Z,83.07
2022-11-05T20:03:31.177Z,83.43
2022-11-05T20:07:34.017Z,83.27
2022-11-05T20:11:37.765Z,83.27
2022-11-05T20:15:39.665Z,83.39
2022-11-05T20:19:41.237Z,83.63
2022-11-05T20:23:43.211Z,83.24
2022-11-05T20:27:44.764Z,83.75
2022-11-05T20:31:46.897Z,84.08
2022-11-05T20:35:48.631Z,83.68
2022-11-05T20:39:50.213Z,83.87
2022-11-05T20:43:51.877Z,83.72
2022-11-05T20:47:53.303Z,83.45
2022-11-05T20:51:55.046Z,83.01
2022-11-05T20:55:56.651Z,83.49
2022-11-05T20:59:58.098Z,84.33
2022-11-05T21:04:00.038Z,84.47
2022-11-05T21:08:01.522Z,84.70
2022-11-05T21:12:12.199Z,84.32
2022-11-05T21:16:18.220Z,84.90
2022-11-05T21:20:21.311Z,84.31
2022-11-05T21:24:23.046Z,84.02
2022-11-05T21:28:24.619Z,84.77
2022-11-05T21:32:26.375Z,84.00
2022-11-05T21:36:27.819Z,84.24
2022-11-05T21:40:29.488Z,84.28
2022-11-05T21:44:31.010Z,84.67
2022-11-05T21:48:32.971Z,84.42
2022-11-05T21:52:53.582Z,84.03
2022-11-05T21:57:13.902Z,84.42
2022-11-05T22:01:15.577Z,85.14
2022-11-05T22:05:17.314Z,85.20
2022-11-05T22:09:18.843Z,85.19
2022-11-05T22:13:20.361Z,85.60
2022-11-05T22:17:21.957Z,85.76
2022-11-05T22:21:23.582Z,86.14
2022-11-05T22:25:25.125Z,85.75
2022-11-05T22:29:27.813Z,85.78
2022-11-05T22:33:30.799Z,86.17
2022-11-05T22:37:32.449Z,85.62
2022-11-05T22:41:34.394Z,84.94
2022-11-05T22:45:36.392Z,84.88
2022-11-05T22:49:38.080Z,85.01
2022-11-05T22:53:41.220Z,85.30
2022-11-05T22:57:42.925Z,85.95
2022-11-05T23:01:45.524Z,85.21
2022-11-05T23:05:47.098Z,84.61
2022-11-05T23:10:07.335Z,84.54
2022-11-05T23:14:11.464Z,85.30
2022-11-05T23:18:31.625Z,84.94
2022-11-05T23:22:51.423Z,84.87
2022-11-05T23:26:53.833Z,85.16
2022-11-05T23:31:14.252Z,86.04
2022-11-05T23:35:16.413Z,85.89
2022-11-05T23:39:18.011Z,85.71
2022-11-05T23:43:38.058Z,85.88
2022-11-05T23:47:58.222Z,86.31
2022-11-05T23:51:59.769Z,86.26
2022-11-05T23:56:05.075Z,86.54
